Time;durP1;ratioP1;P1;durP2;ratioP2;P2;SDS_P1;SDS_P2;PMS_P1;PMS_P2;Temp;Humidity;BMP_temperature;BMP_pressure;BME280_temperature;BME280_humidity;BME280_pressure;Samples;Min_cycle;Max_cycle;Signal;HPM_P1;HPM_P2
2021/10/24 00:01:32;;;;;;;9.38;4.68;;;2.90;93.20;;;;;;4897285;29;20104;-68
2021/10/24 00:04:00;;;;;;;12.65;5.53;;;2.90;92.80;;;;;;4897645;29;20031;-68
2021/10/24 00:06:25;;;;;;;6.70;4.47;;;2.80;92.90;;;;;;4905727;29;20032;-68
2021/10/24 00:08:51;;;;;;;6.22;5.10;;;2.80;92.80;;;;;;4908044;29;20039;-68
2021/10/24 00:11:16;;;;;;;8.95;4.68;;;2.80;92.70;;;;;;4905447;29;20079;-69
2021/10/24 00:13:42;;;;;;;7.20;3.92;;;2.80;92.60;;;;;;4910079;29;20040;-68
2021/10/24 00:16:08;;;;;;;6.00;4.30;;;2.80;92.80;;;;;;4923289;29;20027;-68
2021/10/24 00:18:34;;;;;;;7.05;4.43;;;2.80;93.00;;;;;;4903098;29;20386;-69
2021/10/24 00:21:00;;;;;;;5.03;3.95;;;2.80;93.10;;;;;;4911024;29;20024;-68
2021/10/24 00:23:26;;;;;;;8.23;4.53;;;2.80;93.30;;;;;;4907113;29;20027;-68
2021/10/24 00:25:51;;;;;;;7.88;4.00;;;2.90;93.40;;;;;;4909821;29;20032;-68
2021/10/24 00:28:17;;;;;;;5.53;4.45;;;2.90;93.30;;;;;;4920164;29;20036;-68
2021/10/24 00:30:43;;;;;;;6.90;4.18;;;2.90;93.10;;;;;;4909300;29;20052;-68
2021/10/24 00:33:09;;;;;;;10.73;4.93;;;2.90;93.40;;;;;;4905141;29;20032;-69
2021/10/24 00:35:34;;;;;;;8.38;4.43;;;2.90;93.40;;;;;;4908988;29;20024;-68
2021/10/24 00:38:01;;;;;;;6.40;4.00;;;2.90;93.40;;;;;;4907211;29;20501;-68
2021/10/24 00:40:26;;;;;;;7.32;4.50;;;3.00;93.40;;;;;;4912238;29;20056;-68
2021/10/24 00:42:53;;;;;;;7.05;4.72;;;2.90;93.40;;;;;;4906630;29;20139;-68
2021/10/24 00:45:26;;;;;;;7.47;3.95;;;2.90;93.30;;;;;;4909571;29;20024;-68
2021/10/24 00:47:55;;;;;;;8.05;5.00;;;2.90;93.20;;;;;;4911715;29;20493;-68
2021/10/24 00:50:23;;;;;;;6.13;4.75;;;2.90;93.00;;;;;;4899336;29;20037;-68
2021/10/24 00:52:49;;;;;;;8.02;4.43;;;2.80;93.00;;;;;;4905628;29;20124;-68
2021/10/24 00:55:15;;;;;;;8.50;4.70;;;2.80;92.90;;;;;;4908025;29;20444;-68
2021/10/24 00:57:42;;;;;;;5.78;4.38;;;2.80;93.10;;;;;;4907716;29;20036;-68
2021/10/24 01:00:11;;;;;;;6.65;4.60;;;2.80;93.20;;;;;;4906854;29;20035;-68
2021/10/24 01:02:37;;;;;;;6.30;4.50;;;2.80;93.20;;;;;;4902834;29;20028;-69
2021/10/24 01:05:05;;;;;;;12.57;4.72;;;2.80;93.20;;;;;;4910947;29;20435;-68
2021/10/24 01:07:32;;;;;;;7.03;4.32;;;2.70;93.30;;;;;;4907923;29;20039;-69
2021/10/24 01:09:59;;;;;;;5.40;3.65;;;2.70;93.30;;;;;;4901902;29;20036;-69
2021/10/24 01:12:25;;;;;;;9.18;4.25;;;2.70;93.50;;;;;;4899628;29;20103;-71
2021/10/24 01:14:51;;;;;;;8.05;4.25;;;2.70;93.70;;;;;;4897597;29;20037;-68
2021/10/24 01:17:17;;;;;;;9.80;4.40;;;2.70;93.50;;;;;;4899687;29;20059;-68
2021/10/24 01:19:43;;;;;;;5.68;4.15;;;2.70;93.50;;;;;;4892568;29;20032;-69
2021/10/24 01:22:09;;;;;;;6.55;4.35;;;2.70;93.50;;;;;;4900933;29;20553;-69
2021/10/24 01:24:34;;;;;;;6.05;4.30;;;2.70;93.60;;;;;;4902927;29;20028;-68
2021/10/24 01:27:00;;;;;;;6.85;4.25;;;2.70;93.60;;;;;;4909145;29;21262;-68
2021/10/24 01:29:25;;;;;;;5.82;3.50;;;2.70;93.50;;;;;;4907028;29;20036;-69
2021/10/24 01:31:52;;;;;;;8.98;4.50;;;2.70;93.30;;;;;;4913137;29;20032;-68
2021/10/24 01:34:18;;;;;;;6.63;3.35;;;2.70;93.20;;;;;;4901631;29;20048;-68
2021/10/24 01:36:44;;;;;;;5.80;3.67;;;2.70;93.10;;;;;;4900563;29;20091;-68
2021/10/24 01:39:10;;;;;;;7.18;4.10;;;2.60;92.90;;;;;;4898318;29;20119;-68
2021/10/24 01:41:36;;;;;;;6.18;3.92;;;2.60;92.80;;;;;;4898204;29;20034;-68
2021/10/24 01:44:02;;;;;;;7.53;4.00;;;2.60;92.80;;;;;;4903502;29;20098;-68
2021/10/24 01:46:27;;;;;;;7.60;4.38;;;2.60;92.80;;;;;;4925279;29;20482;-69
2021/10/24 01:48:53;;;;;;;6.45;4.03;;;2.60;92.80;;;;;;4909448;29;20032;-69
2021/10/24 01:51:20;;;;;;;6.85;3.72;;;2.60;92.90;;;;;;4912404;29;20031;-69
2021/10/24 01:53:47;;;;;;;5.35;3.47;;;2.60;93.00;;;;;;4911340;29;20036;-69
2021/10/24 01:56:14;;;;;;;6.97;4.38;;;2.50;93.00;;;;;;4903119;29;20043;-69
2021/10/24 01:58:39;;;;;;;5.55;3.67;;;2.60;92.90;;;;;;4903903;29;20020;-69
2021/10/24 02:01:06;;;;;;;4.13;3.35;;;2.40;92.90;;;;;;4896553;29;20047;-68
2021/10/24 02:03:32;;;;;;;6.18;3.97;;;2.40;93.10;;;;;;4889930;29;20507;-69
2021/10/24 02:05:58;;;;;;;4.95;3.97;;;2.40;93.40;;;;;;4882770;29;20024;-69
2021/10/24 02:08:23;;;;;;;6.32;3.67;;;2.40;93.40;;;;;;4885418;29;20542;-69
2021/10/24 02:10:49;;;;;;;6.00;4.28;;;2.30;93.40;;;;;;4888148;29;20675;-69
2021/10/24 02:13:15;;;;;;;8.95;4.00;;;2.40;93.40;;;;;;4889356;29;20060;-68
2021/10/24 02:15:41;;;;;;;7.80;3.95;;;2.30;93.20;;;;;;4897499;29;20131;-68
2021/10/24 02:18:09;;;;;;;7.25;3.90;;;2.30;93.00;;;;;;4901787;29;20044;-68
2021/10/24 02:20:36;;;;;;;6.15;3.70;;;2.30;93.10;;;;;;4888157;29;20032;-69
2021/10/24 02:23:03;;;;;;;7.88;3.03;;;2.30;92.90;;;;;;4891317;29;20506;-69
2021/10/24 02:25:29;;;;;;;5.20;3.55;;;2.30;92.80;;;;;;4888298;29;20021;-69
2021/10/24 02:27:55;;;;;;;4.65;3.35;;;2.30;93.30;;;;;;4902445;29;20302;-68
2021/10/24 02:30:21;;;;;;;9.65;3.90;;;2.30;92.90;;;;;;4889112;29;20032;-68
2021/10/24 02:32:47;;;;;;;3.85;3.25;;;2.30;92.90;;;;;;4915596;29;20071;-68
2021/10/24 02:35:14;;;;;;;6.00;3.85;;;2.20;92.60;;;;;;4911541;29;20066;-68
2021/10/24 02:37:41;;;;;;;10.90;3.28;;;2.20;92.50;;;;;;4902996;29;20033;-68
2021/10/24 02:40:08;;;;;;;8.48;4.07;;;2.10;92.40;;;;;;4907808;29;20114;-68
2021/10/24 02:42:34;;;;;;;4.57;3.30;;;2.10;92.40;;;;;;4907763;29;20065;-69
2021/10/24 02:45:00;;;;;;;6.78;3.17;;;2.00;92.30;;;;;;4903367;29;20119;-68
2021/10/24 02:47:26;;;;;;;6.03;3.35;;;2.00;92.40;;;;;;4904973;29;20042;-68
2021/10/24 02:49:51;;;;;;;6.07;3.75;;;1.90;92.50;;;;;;4900401;29;20035;-69
2021/10/24 02:52:17;;;;;;;6.70;3.72;;;1.90;92.10;;;;;;4908291;29;20028;-68
2021/10/24 02:54:43;;;;;;;6.25;3.40;;;1.80;92.40;;;;;;4913652;29;20573;-68
2021/10/24 02:57:09;;;;;;;4.00;3.47;;;1.90;92.50;;;;;;4923900;29;20107;-68
2021/10/24 02:59:34;;;;;;;5.68;3.17;;;1.80;92.10;;;;;;4909737;29;20052;-69
2021/10/24 03:02:01;;;;;;;3.17;2.83;;;1.80;92.10;;;;;;4910654;28;20123;-68
2021/10/24 03:04:30;;;;;;;4.78;3.13;;;1.70;92.50;;;;;;4913259;29;20039;-69
2021/10/24 03:06:56;;;;;;;5.68;3.42;;;1.70;92.40;;;;;;4910698;29;20035;-68
2021/10/24 03:09:22;;;;;;;4.78;3.22;;;1.70;92.40;;;;;;4912784;29;20040;-68
2021/10/24 03:11:48;;;;;;;8.45;3.58;;;1.70;92.60;;;;;;4910028;29;20047;-69
2021/10/24 03:14:14;;;;;;;6.88;3.80;;;1.70;92.80;;;;;;4908515;29;20139;-69
2021/10/24 03:16:41;;;;;;;6.88;3.90;;;1.70;92.70;;;;;;4908048;29;20041;-68
2021/10/24 03:19:08;;;;;;;7.78;3.38;;;1.70;92.80;;;;;;4910239;29;20052;-68
2021/10/24 03:21:34;;;;;;;8.73;3.38;;;1.70;92.80;;;;;;4902989;29;20523;-68
2021/10/24 03:24:01;;;;;;;4.68;3.40;;;1.80;92.80;;;;;;4905071;29;20143;-69
2021/10/24 03:26:30;;;;;;;7.65;3.58;;;1.80;92.90;;;;;;4903994;29;20158;-68
2021/10/24 03:28:56;;;;;;;4.10;3.40;;;1.80;92.90;;;;;;4914015;29;20024;-68
2021/10/24 03:31:21;;;;;;;4.10;3.03;;;1.80;93.10;;;;;;4903475;29;20033;-69
2021/10/24 03:33:47;;;;;;;6.78;3.38;;;1.80;93.00;;;;;;4911259;29;20032;-68
2021/10/24 03:36:13;;;;;;;5.22;3.22;;;1.80;93.00;;;;;;4912886;29;20032;-70
2021/10/24 03:38:40;;;;;;;3.65;3.33;;;1.70;92.90;;;;;;4903565;29;20458;-68
2021/10/24 03:41:06;;;;;;;4.68;3.15;;;1.70;93.20;;;;;;4901866;29;20115;-69
2021/10/24 03:43:31;;;;;;;10.05;3.50;;;1.70;93.30;;;;;;4898395;29;20079;-69
2021/10/24 03:45:57;;;;;;;3.75;3.33;;;1.80;93.30;;;;;;4911869;29;20031;-69
2021/10/24 03:48:23;;;;;;;6.22;3.33;;;1.80;93.50;;;;;;4907622;29;20062;-69
2021/10/24 03:50:48;;;;;;;5.45;4.00;;;1.80;93.40;;;;;;4897183;29;20036;-68
2021/10/24 03:53:16;;;;;;;4.25;3.03;;;1.80;93.40;;;;;;4908489;29;20129;-69
2021/10/24 03:55:41;;;;;;;5.13;3.83;;;1.80;93.40;;;;;;4910917;29;20083;-69
2021/10/24 03:58:07;;;;;;;5.07;3.70;;;1.70;93.30;;;;;;4909169;29;20479;-68
2021/10/24 04:00:33;;;;;;;7.43;3.72;;;1.80;93.50;;;;;;4909601;29;20107;-68
2021/10/24 04:03:05;;;;;;;5.93;3.78;;;1.80;93.30;;;;;;4909322;29;20032;-68
2021/10/24 04:05:31;;;;;;;7.75;3.45;;;1.80;93.00;;;;;;4907494;29;20021;-68
2021/10/24 04:07:57;;;;;;;6.82;3.50;;;1.70;93.10;;;;;;4921617;29;20048;-68
2021/10/24 04:10:25;;;;;;;6.93;3.63;;;1.70;93.40;;;;;;4909704;29;20449;-68
2021/10/24 04:12:51;;;;;;;5.77;3.07;;;1.70;93.50;;;;;;4903661;29;20036;-69
2021/10/24 04:15:18;;;;;;;5.75;3.75;;;1.70;93.40;;;;;;4907802;29;20051;-68
2021/10/24 04:17:44;;;;;;;4.70;3.10;;;1.70;94.10;;;;;;4912805;29;20028;-68
2021/10/24 04:20:12;;;;;;;6.07;3.67;;;1.70;93.60;;;;;;4906093;29;20036;-68
2021/10/24 04:22:39;;;;;;;6.07;3.95;;;1.70;93.60;;;;;;4907005;29;20043;-68
2021/10/24 04:25:07;;;;;;;5.35;3.65;;;1.70;93.60;;;;;;4904017;29;20041;-68
2021/10/24 04:27:32;;;;;;;6.32;3.90;;;1.70;94.70;;;;;;4913920;29;20042;-68
2021/10/24 04:29:59;;;;;;;5.68;3.97;;;1.70;94.20;;;;;;4908348;29;20035;-69
2021/10/24 04:32:25;;;;;;;7.55;3.67;;;1.80;94.40;;;;;;4905621;29;20545;-69
2021/10/24 04:34:51;;;;;;;6.68;3.53;;;1.80;94.30;;;;;;4902458;29;20082;-69
2021/10/24 04:37:17;;;;;;;6.75;3.80;;;1.80;94.20;;;;;;4908318;29;20108;-69
2021/10/24 04:39:43;;;;;;;3.47;2.97;;;1.80;94.60;;;;;;4908155;29;20032;-68
2021/10/24 04:42:09;;;;;;;7.63;3.67;;;1.80;94.30;;;;;;4906153;29;20036;-69
2021/10/24 04:44:35;;;;;;;6.18;3.85;;;1.80;94.50;;;;;;4906169;29;20379;-68
2021/10/24 04:47:00;;;;;;;5.43;3.95;;;1.80;94.20;;;;;;4911178;29;20067;-69
2021/10/24 04:49:26;;;;;;;6.97;3.70;;;1.80;94.30;;;;;;4908367;29;20032;-70
2021/10/24 04:51:52;;;;;;;7.15;4.28;;;1.80;94.00;;;;;;4906024;29;20035;-69
2021/10/24 04:54:19;;;;;;;7.18;4.05;;;1.80;93.80;;;;;;4904979;29;20047;-68
2021/10/24 04:56:45;;;;;;;4.68;3.78;;;1.80;93.70;;;;;;4907592;29;20119;-68
2021/10/24 04:59:11;;;;;;;6.72;3.90;;;1.80;93.80;;;;;;4911645;29;20622;-68
2021/10/24 05:01:36;;;;;;;7.50;4.10;;;1.80;93.70;;;;;;4907971;29;20051;-68
2021/10/24 05:04:02;;;;;;;7.88;4.53;;;1.70;93.70;;;;;;4906288;29;20398;-68
2021/10/24 05:06:28;;;;;;;4.75;3.42;;;1.70;93.70;;;;;;4906782;29;20036;-68
2021/10/24 05:08:54;;;;;;;5.50;4.45;;;1.70;93.90;;;;;;4902865;29;20036;-68
2021/10/24 05:11:19;;;;;;;5.32;3.40;;;1.60;94.10;;;;;;4907491;29;20035;-68
2021/10/24 05:13:45;;;;;;;8.88;4.40;;;1.70;94.00;;;;;;4915650;29;20100;-68
2021/10/24 05:16:11;;;;;;;6.85;4.18;;;1.60;94.10;;;;;;4908252;29;20039;-66
2021/10/24 05:18:36;;;;;;;9.00;4.63;;;1.70;94.20;;;;;;4910383;29;20028;-66
2021/10/24 05:21:02;;;;;;;5.82;4.20;;;1.70;94.30;;;;;;4903888;29;20028;-66
2021/10/24 05:23:27;;;;;;;5.63;4.03;;;1.80;94.30;;;;;;4903349;29;20032;-67
2021/10/24 05:25:53;;;;;;;10.10;4.00;;;1.70;94.20;;;;;;4905090;29;20079;-68
2021/10/24 05:28:19;;;;;;;6.40;4.35;;;1.80;94.60;;;;;;4906603;29;20028;-67
2021/10/24 05:30:45;;;;;;;6.70;4.10;;;1.80;94.20;;;;;;4905124;28;20083;-67
2021/10/24 05:33:10;;;;;;;5.40;3.97;;;1.80;94.10;;;;;;4900293;29;20028;-68
2021/10/24 05:35:36;;;;;;;5.18;4.40;;;1.80;94.20;;;;;;4907862;29;20040;-67
2021/10/24 05:38:02;;;;;;;5.57;4.00;;;1.90;94.40;;;;;;4903915;29;20036;-67
2021/10/24 05:40:28;;;;;;;6.20;4.10;;;1.90;94.40;;;;;;4904952;29;20466;-67
2021/10/24 05:42:53;;;;;;;7.85;4.43;;;1.80;94.50;;;;;;4896713;29;20853;-67
2021/10/24 05:45:19;;;;;;;8.00;3.90;;;1.80;94.40;;;;;;4903254;29;20036;-68
2021/10/24 05:47:45;;;;;;;7.22;4.20;;;1.80;94.20;;;;;;4907562;29;20044;-67
2021/10/24 05:50:11;;;;;;;5.90;4.18;;;1.80;94.30;;;;;;4905026;29;20032;-68
2021/10/24 05:52:36;;;;;;;5.15;4.10;;;1.80;94.40;;;;;;4908922;29;20056;-67
2021/10/24 05:55:05;;;;;;;7.40;4.50;;;1.80;94.30;;;;;;4907826;29;20186;-67
2021/10/24 05:57:31;;;;;;;5.82;3.80;;;1.80;93.90;;;;;;4910914;29;20043;-67
2021/10/24 05:59:57;;;;;;;7.25;4.28;;;1.70;93.90;;;;;;4903372;29;20060;-67
2021/10/24 06:02:22;;;;;;;11.05;4.25;;;1.70;93.70;;;;;;4914284;29;20038;-67
2021/10/24 06:04:48;;;;;;;6.82;4.57;;;1.70;94.00;;;;;;4896332;29;20162;-67
2021/10/24 06:07:14;;;;;;;7.45;4.50;;;1.60;94.10;;;;;;4913075;29;20430;-67
2021/10/24 06:12:05;;;;;;;8.93;4.88;;;1.70;94.60;;;;;;4910563;29;20040;-67
2021/10/24 06:14:31;;;;;;;8.32;4.97;;;1.70;94.40;;;;;;4902209;29;20044;-67
2021/10/24 06:16:57;;;;;;;8.48;5.15;;;1.70;94.40;;;;;;4904889;29;20047;-67
2021/10/24 06:19:22;;;;;;;10.55;5.10;;;1.70;94.50;;;;;;4906498;29;20485;-67
2021/10/24 06:21:48;;;;;;;4.20;3.80;;;1.70;94.50;;;;;;4901118;29;20024;-67
2021/10/24 06:24:13;;;;;;;7.95;5.13;;;1.70;94.40;;;;;;4909830;29;20107;-67
2021/10/24 06:26:40;;;;;;;11.38;5.30;;;1.70;94.40;;;;;;4912664;29;20028;-67
2021/10/24 06:29:06;;;;;;;9.43;4.25;;;1.60;94.40;;;;;;4904869;29;20060;-67
2021/10/24 06:31:32;;;;;;;5.55;4.47;;;1.60;94.30;;;;;;4903166;29;20164;-67
2021/10/24 06:33:58;;;;;;;14.90;5.45;;;1.60;94.30;;;;;;4905408;29;20024;-67
2021/10/24 06:36:23;;;;;;;9.57;5.60;;;1.60;94.20;;;;;;4901804;29;20043;-67
2021/10/24 06:38:49;;;;;;;8.38;4.70;;;1.60;94.20;;;;;;4902056;29;20028;-67
2021/10/24 06:41:15;;;;;;;8.45;4.55;;;1.60;94.00;;;;;;4905915;29;20054;-67
2021/10/24 06:43:40;;;;;;;5.93;4.10;;;1.60;94.00;;;;;;4906166;29;20453;-67
2021/10/24 06:46:06;;;;;;;7.10;4.38;;;1.60;94.20;;;;;;4912084;29;20032;-68
2021/10/24 06:48:31;;;;;;;5.60;3.63;;;1.60;94.30;;;;;;4907190;29;20032;-67
2021/10/24 06:50:57;;;;;;;5.65;4.00;;;1.70;94.40;;;;;;4909763;29;20036;-68
2021/10/24 06:53:23;;;;;;;7.25;4.32;;;1.70;94.40;;;;;;4911494;29;20486;-67
2021/10/24 06:55:48;;;;;;;6.97;4.35;;;1.70;94.40;;;;;;4901702;29;20043;-67
2021/10/24 06:58:14;;;;;;;14.15;6.72;;;1.70;94.40;;;;;;4910373;29;20111;-68
2021/10/24 07:00:39;;;;;;;7.63;4.85;;;1.80;94.50;;;;;;4910769;29;20024;-69
2021/10/24 07:03:05;;;;;;;6.65;4.93;;;1.80;94.50;;;;;;4918232;29;20528;-69
2021/10/24 07:05:31;;;;;;;6.93;4.47;;;1.80;94.50;;;;;;4910258;29;20068;-68
2021/10/24 07:07:57;;;;;;;6.75;4.55;;;1.80;94.70;;;;;;4912724;29;20039;-69
2021/10/24 07:10:22;;;;;;;12.98;5.88;;;1.80;95.00;;;;;;4909731;29;20410;-68
2021/10/24 07:12:51;;;;;;;9.65;4.45;;;1.90;94.80;;;;;;4920004;29;20438;-69
2021/10/24 07:15:21;;;;;;;8.18;5.25;;;1.90;94.70;;;;;;4925108;29;20517;-69
2021/10/24 07:17:47;;;;;;;5.55;4.75;;;1.90;94.70;;;;;;4906948;29;20032;-69
2021/10/24 07:20:13;;;;;;;7.97;5.35;;;2.00;95.00;;;;;;4909797;29;20474;-69
2021/10/24 07:22:39;;;;;;;8.90;5.30;;;2.00;94.70;;;;;;4923374;29;20043;-69
2021/10/24 07:25:05;;;;;;;8.55;4.43;;;2.00;94.70;;;;;;4907804;29;20091;-69
2021/10/24 07:27:31;;;;;;;11.48;5.03;;;2.10;94.60;;;;;;4911585;29;20040;-69
2021/10/24 07:29:57;;;;;;;7.88;4.35;;;2.10;94.60;;;;;;4912194;29;20030;-69
2021/10/24 07:32:23;;;;;;;12.30;5.15;;;2.10;94.70;;;;;;4911569;29;20044;-69
2021/10/24 07:34:49;;;;;;;10.65;5.15;;;2.20;95.30;;;;;;4903959;29;20036;-69
2021/10/24 07:37:14;;;;;;;9.73;5.53;;;2.20;95.00;;;;;;4911677;29;20119;-69
2021/10/24 07:39:40;;;;;;;8.18;5.45;;;2.30;95.10;;;;;;4907344;29;20174;-69
2021/10/24 07:42:06;;;;;;;6.15;4.85;;;2.30;95.20;;;;;;4911514;29;20036;-68
2021/10/24 07:44:32;;;;;;;13.45;5.63;;;2.30;95.60;;;;;;4903917;29;20075;-69
2021/10/24 07:46:58;;;;;;;11.40;5.43;;;2.40;95.90;;;;;;4908689;29;20553;-68
2021/10/24 07:49:30;;;;;;;10.60;5.70;;;2.40;96.20;;;;;;4908141;29;20059;-67
2021/10/24 07:51:57;;;;;;;9.27;5.63;;;2.50;96.30;;;;;;4904993;29;20040;-68
2021/10/24 07:54:22;;;;;;;11.52;6.10;;;2.60;96.70;;;;;;4900406;29;20047;-68
2021/10/24 07:56:48;;;;;;;9.63;6.13;;;2.80;97.80;;;;;;4905473;29;20347;-68
2021/10/24 07:59:14;;;;;;;8.50;6.30;;;2.90;97.90;;;;;;4905450;29;20508;-68
2021/10/24 08:01:41;;;;;;;13.27;6.97;;;3.00;97.90;;;;;;4910948;29;20036;-68
2021/10/24 08:04:07;;;;;;;15.63;7.55;;;3.10;98.10;;;;;;4901361;29;20520;-68
2021/10/24 08:06:37;;;;;;;12.40;6.55;;;3.20;98.00;;;;;;4899022;29;20029;-67
2021/10/24 08:09:07;;;;;;;7.80;6.18;;;3.20;97.80;;;;;;4901903;29;20067;-68
2021/10/24 08:11:38;;;;;;;9.13;6.70;;;3.30;97.50;;;;;;4895751;29;20124;-68
2021/10/24 08:14:06;;;;;;;11.90;6.32;;;3.30;97.50;;;;;;4899460;29;20044;-68
2021/10/24 08:16:32;;;;;;;10.55;5.95;;;3.40;97.10;;;;;;4901027;29;20409;-68
2021/10/24 08:18:58;;;;;;;9.27;5.88;;;3.50;97.10;;;;;;4918054;29;20040;-68
2021/10/24 08:21:24;;;;;;;10.23;5.93;;;3.60;97.70;;;;;;4899149;29;20047;-68
2021/10/24 08:23:50;;;;;;;12.48;6.55;;;3.80;97.60;;;;;;4896515;29;20486;-68
2021/10/24 08:26:16;;;;;;;10.80;6.65;;;3.90;97.30;;;;;;4896780;29;20039;-68
2021/10/24 08:28:43;;;;;;;11.05;6.43;;;3.90;97.00;;;;;;4898199;29;20098;-68
2021/10/24 08:31:10;;;;;;;8.20;5.95;;;4.00;96.70;;;;;;4897634;29;20036;-68
2021/10/24 08:33:35;;;;;;;10.82;6.05;;;4.10;97.30;;;;;;4897833;29;20662;-67
2021/10/24 08:36:01;;;;;;;8.65;5.40;;;4.20;97.30;;;;;;4901500;29;20032;-68
2021/10/24 08:38:28;;;;;;;9.77;5.80;;;4.30;97.10;;;;;;4896263;29;20035;-68
2021/10/24 08:40:55;;;;;;;13.10;5.65;;;4.40;96.60;;;;;;4898180;29;20123;-68
2021/10/24 08:43:28;;;;;;;8.40;6.03;;;4.50;95.70;;;;;;4898725;29;20511;-68
2021/10/24 08:45:55;;;;;;;9.75;4.80;;;4.60;95.40;;;;;;4898607;29;20123;-68
2021/10/24 08:48:21;;;;;;;8.38;5.15;;;4.80;95.60;;;;;;4897594;29;20032;-68
2021/10/24 08:50:48;;;;;;;12.07;5.10;;;4.80;94.80;;;;;;4900789;29;20136;-68
2021/10/24 08:53:20;;;;;;;9.50;4.97;;;4.90;94.90;;;;;;4897373;29;20036;-67
2021/10/24 08:55:46;;;;;;;7.53;4.95;;;5.00;95.10;;;;;;4900687;29;20032;-68
2021/10/24 08:58:15;;;;;;;8.13;4.63;;;5.10;94.50;;;;;;4894332;29;20036;-68
2021/10/24 09:00:41;;;;;;;9.05;6.10;;;5.20;94.10;;;;;;4900394;29;20048;-68
2021/10/24 09:03:09;;;;;;;8.07;5.25;;;5.30;93.30;;;;;;4900785;29;20390;-68
2021/10/24 09:05:46;;;;;;;9.93;5.35;;;5.30;92.80;;;;;;4899742;29;20032;-67
2021/10/24 09:08:21;;;;;;;6.38;5.07;;;5.40;92.80;;;;;;4896563;29;20122;-67
2021/10/24 09:10:47;;;;;;;9.43;5.75;;;5.50;92.60;;;;;;4896748;29;20112;-67
2021/10/24 09:13:24;;;;;;;7.93;5.47;;;5.60;92.50;;;;;;4897388;29;20040;-67
2021/10/24 09:15:55;;;;;;;8.77;5.32;;;5.60;91.90;;;;;;4897036;29;20040;-68
2021/10/24 09:18:39;;;;;;;10.68;6.75;;;5.70;92.10;;;;;;4913702;29;20036;-67
2021/10/24 09:21:18;;;;;;;7.30;5.00;;;5.80;91.60;;;;;;4903111;29;20032;-67
2021/10/24 09:23:44;;;;;;;;;;;5.80;91.20;;;;;;4902083;29;20674;-68
2021/10/24 09:26:29;;;;;;;8.30;4.70;;;5.80;91.30;;;;;;4900855;29;19920;-68
2021/10/24 09:29:14;;;;;;;5.80;4.40;;;5.90;91.30;;;;;;4903212;29;20028;-68
2021/10/24 09:31:49;;;;;;;5.32;4.45;;;6.10;91.20;;;;;;4902559;29;20028;-68
2021/10/24 09:34:25;;;;;;;8.88;4.97;;;6.10;91.10;;;;;;4902045;29;20036;-68
2021/10/24 09:36:58;;;;;;;9.30;4.45;;;6.20;91.20;;;;;;4898530;29;20028;-68
2021/10/24 09:39:29;;;;;;;9.70;5.50;;;6.40;91.20;;;;;;4897648;29;20020;-68
2021/10/24 09:42:14;;;;;;;7.97;4.68;;;6.40;91.10;;;;;;4900593;29;20055;-68
2021/10/24 09:45:05;;;;;;;6.38;4.55;;;6.50;90.40;;;;;;4916600;29;20024;-67
2021/10/24 09:47:35;;;;;;;5.72;4.05;;;6.50;89.80;;;;;;4915299;29;20028;-68
2021/10/24 09:50:07;;;;;;;6.00;4.60;;;6.70;90.40;;;;;;4902268;29;20140;-68
2021/10/24 09:52:34;;;;;;;7.07;4.40;;;6.70;90.20;;;;;;4920630;29;20607;-68
2021/10/24 09:55:00;;;;;;;10.25;5.13;;;6.80;88.60;;;;;;4902086;29;20490;-68
2021/10/24 09:57:27;;;;;;;6.22;4.57;;;6.80;86.70;;;;;;4901162;29;20036;-67
2021/10/24 09:59:54;;;;;;;9.60;4.30;;;6.90;88.00;;;;;;4897852;29;20043;-67
2021/10/24 10:02:21;;;;;;;6.43;4.22;;;7.00;88.40;;;;;;4901203;29;20037;-67
2021/10/24 10:04:47;;;;;;;6.07;4.50;;;7.00;87.90;;;;;;4898790;29;20071;-67
2021/10/24 10:07:18;;;;;;;5.40;4.47;;;7.10;87.70;;;;;;4916594;29;20036;-68
2021/10/24 10:09:47;;;;;;;7.78;4.30;;;7.20;86.30;;;;;;4896598;29;20047;-68
2021/10/24 10:12:19;;;;;;;4.95;4.07;;;7.30;86.60;;;;;;4903230;29;20082;-68
2021/10/24 10:14:45;;;;;;;6.35;4.00;;;7.30;85.60;;;;;;4903374;29;20096;-68
2021/10/24 10:17:14;;;;;;;4.97;3.95;;;7.30;85.60;;;;;;4904680;29;20044;-67
2021/10/24 10:19:41;;;;;;;;;;;7.40;85.10;;;;;;4905404;29;20033;-68
2021/10/24 10:22:21;;;;;;;4.32;3.50;;;7.40;85.50;;;;;;4907971;29;20311;-68
2021/10/24 10:24:58;;;;;;;7.25;4.10;;;7.50;85.20;;;;;;4904667;29;20027;-68
2021/10/24 10:27:27;;;;;;;5.38;3.70;;;7.60;84.20;;;;;;4906915;29;20028;-68
2021/10/24 10:29:54;;;;;;;;;;;7.60;84.20;;;;;;4910575;29;20545;-68
2021/10/24 10:32:23;;;;;;;7.30;4.00;;;7.70;84.70;;;;;;4910469;29;20345;-67
2021/10/24 10:34:57;;;;;;;5.40;4.78;;;7.60;84.00;;;;;;4912339;29;20032;-68
2021/10/24 10:37:56;;;;;;;5.45;4.15;;;7.80;85.50;;;;;;4909461;29;20031;-67
2021/10/24 10:40:40;;;;;;;4.65;3.63;;;7.90;82.40;;;;;;4910650;29;20082;-68
2021/10/24 10:43:13;;;;;;;8.65;4.97;;;7.80;82.80;;;;;;4911482;29;20036;-67
2021/10/24 10:45:56;;;;;;;5.30;4.32;;;7.90;82.60;;;;;;4911388;29;20032;-67
2021/10/24 10:48:28;;;;;;;7.15;4.03;;;7.90;82.80;;;;;;4905166;29;20100;-68
2021/10/24 10:51:10;;;;;;;8.27;5.10;;;8.00;83.10;;;;;;4913883;29;20395;-67
2021/10/24 10:53:36;;;;;;;5.05;4.13;;;8.00;82.10;;;;;;4901953;29;20512;-68
2021/10/24 10:56:02;;;;;;;6.68;4.72;;;8.10;82.30;;;;;;4907623;29;20036;-68
2021/10/24 10:58:38;;;;;;;6.40;4.22;;;8.20;82.70;;;;;;4906215;29;20025;-68
2021/10/24 11:01:06;;;;;;;7.03;4.18;;;8.40;84.20;;;;;;4910693;29;20047;-68
2021/10/24 11:03:46;;;;;;;7.97;5.20;;;8.50;81.40;;;;;;4914432;29;20060;-68
2021/10/24 11:06:38;;;;;;;6.97;4.30;;;8.40;81.90;;;;;;4911427;29;20036;-68
2021/10/24 11:09:28;;;;;;;5.63;4.47;;;8.40;81.10;;;;;;4907041;29;20039;-68
2021/10/24 11:11:56;;;;;;;7.13;4.40;;;8.40;83.40;;;;;;4908677;29;20502;-68
2021/10/24 11:14:22;;;;;;;6.93;4.55;;;8.60;82.00;;;;;;4905301;29;20505;-68
2021/10/24 11:16:52;;;;;;;6.38;4.43;;;8.50;80.50;;;;;;4913536;29;20118;-68
2021/10/24 11:21:55;;;;;;;6.43;3.88;;;8.60;80.50;;;;;;4905629;29;20115;-68
2021/10/24 11:24:22;;;;;;;4.95;4.07;;;8.70;80.90;;;;;;4913926;29;20059;-68
2021/10/24 11:26:57;;;;;;;6.97;4.75;;;8.70;79.00;;;;;;4911777;29;20028;-68
2021/10/24 11:29:23;;;;;;;5.25;3.92;;;9.00;81.70;;;;;;4908751;29;20076;-68
2021/10/24 11:32:37;;;;;;;4.57;4.10;;;9.10;80.00;;;;;;4907460;29;20075;-68
2021/10/24 11:35:16;;;;;;;4.82;4.22;;;9.20;79.10;;;;;;4903077;29;20039;-68
2021/10/24 11:37:47;;;;;;;7.65;4.03;;;9.30;77.20;;;;;;4907185;29;20429;-68
2021/10/24 11:40:25;;;;;;;6.47;4.35;;;9.40;77.90;;;;;;4904831;29;20032;-68
2021/10/24 11:43:04;;;;;;;8.35;4.45;;;9.40;76.30;;;;;;4905061;29;20023;-67
2021/10/24 11:46:03;;;;;;;5.63;3.90;;;9.30;77.20;;;;;;4899160;29;20028;-67
2021/10/24 11:48:31;;;;;;;5.13;3.80;;;9.30;74.80;;;;;;4895638;29;20580;-68
2021/10/24 11:51:04;;;;;;;6.53;3.58;;;9.30;75.70;;;;;;4898111;29;20549;-68
2021/10/24 11:53:45;;;;;;;7.22;4.03;;;9.20;75.70;;;;;;4898155;29;20513;-68
2021/10/24 11:56:34;;;;;;;4.68;4.10;;;9.40;76.30;;;;;;4899141;29;20102;-67
2021/10/24 11:59:18;;;;;;;6.20;3.47;;;9.60;76.20;;;;;;4901295;29;20065;-68
2021/10/24 12:01:43;;;;;;;5.00;3.42;;;9.60;74.30;;;;;;4902997;29;20037;-68
2021/10/24 12:04:14;;;;;;;7.35;4.68;;;9.50;74.40;;;;;;4902251;29;20039;-68
2021/10/24 12:06:55;;;;;;;7.43;4.03;;;9.70;75.70;;;;;;4903603;29;20024;-67
2021/10/24 12:09:42;;;;;;;4.65;3.85;;;9.80;75.70;;;;;;4902791;29;20016;-67
2021/10/24 12:12:12;;;;;;;5.32;4.43;;;9.80;73.90;;;;;;4903524;29;20028;-68
2021/10/24 12:14:50;;;;;;;5.47;3.70;;;9.70;74.70;;;;;;4919037;29;20506;-68
2021/10/24 12:17:21;;;;;;;6.57;4.28;;;9.80;73.30;;;;;;4893548;29;20045;-68
2021/10/24 12:19:49;;;;;;;7.40;3.80;;;9.70;73.00;;;;;;4904598;29;20442;-69
2021/10/24 12:22:15;;;;;;;4.27;3.50;;;9.70;72.80;;;;;;4896763;29;20036;-68
2021/10/24 12:24:47;;;;;;;8.93;3.75;;;9.70;72.40;;;;;;4894306;29;20316;-68
2021/10/24 12:27:34;;;;;;;5.65;3.88;;;9.70;74.30;;;;;;4891586;29;20092;-68
2021/10/24 12:30:15;;;;;;;5.90;3.65;;;10.00;74.50;;;;;;4894930;29;20033;-68
2021/10/24 12:33:01;;;;;;;4.97;3.72;;;10.00;75.80;;;;;;4893505;29;20083;-68
2021/10/24 12:35:26;;;;;;;5.45;3.40;;;10.20;76.90;;;;;;4898507;29;20032;-67
2021/10/24 12:37:57;;;;;;;4.30;3.75;;;10.30;74.30;;;;;;4898091;29;20083;-68
2021/10/24 12:40:26;;;;;;;4.38;3.72;;;10.30;73.30;;;;;;4897483;29;20040;-68
2021/10/24 12:43:07;;;;;;;4.57;4.18;;;10.20;73.30;;;;;;4895447;29;20205;-68
2021/10/24 12:46:02;;;;;;;5.43;3.92;;;10.10;73.00;;;;;;4894109;29;20025;-68
2021/10/24 12:48:45;;;;;;;5.78;3.53;;;10.10;72.20;;;;;;4896894;29;20598;-67
2021/10/24 12:51:28;;;;;;;4.35;3.47;;;10.20;73.50;;;;;;4892042;29;20039;-68
2021/10/24 12:53:59;;;;;;;4.03;3.45;;;10.20;73.60;;;;;;4894713;29;22455;-68
2021/10/24 12:56:25;;;;;;;5.22;3.53;;;10.30;72.30;;;;;;4900986;29;20043;-69
2021/10/24 12:58:52;;;;;;;7.07;4.00;;;10.20;72.50;;;;;;4897566;29;20039;-68
2021/10/24 13:01:31;;;;;;;6.13;3.63;;;10.20;71.90;;;;;;4896370;29;20040;-68
2021/10/24 13:03:59;;;;;;;5.88;3.33;;;10.20;72.30;;;;;;4895916;29;20033;-68
2021/10/24 13:06:26;;;;;;;3.83;3.43;;;10.40;72.90;;;;;;4895288;29;20032;-68
2021/10/24 13:08:52;;;;;;;6.22;3.83;;;10.30;72.10;;;;;;4892445;29;20032;-68